Terminal Aerodrome Forecast
Issued by NWS

Home | Current Version | Previous Version | Text Only | Print | Product List | Glossary On
Versions: 1 2 3 4 5 6 7 8 9 10 11 12 13 14 15 16 17 18 19 20 21 22 23
000
FTUS42 KTAE 031721
TAFECP
TAF
KECP 031721Z 0318/0418 00000KT P6SM VCTS SCT030CB BKN080
      TEMPO 0319/0323 2SM +TSRA OVC020CB
     FM040500 33007KT P6SM BKN040
     FM041300 35009KT P6SM SCT050=

USA.gov is the U.S. government's official web portal to all federal, state and local government web resources and services.